Bookmark and Share
Track history (hours):
 

Aegean Orion

Last reported at 2014-Apr-17 14:33 UTC. Time now 2014-Apr-17 18:40 UTC.
Position N 38°02' E 023°32'.

Length 52 m; draft 2.4 m.

Type: Ship. MMSI: 239550200.

NotesDate/timePositionNaut miles runAvg speedWind from/ knotsBaromVisibWave heightAir tempDewpointWater temp
2014-Apr-17 14:33N 38°02' E 023°32'7 7.3
2014-Apr-17 13:33N 37°56' E 023°38'1 0.7
2014-Apr-17 12:33N 37°57' E 023°38'1 1.5
2014-Apr-17 11:33N 37°57' E 023°37'1 0.6
2014-Apr-17 10:33N 37°56' E 023°37'0 0.0
2014-Apr-17 09:33N 37°56' E 023°37'0 0.0
2014-Apr-17 08:33N 37°56' E 023°37'0 0.0
2014-Apr-17 07:33N 37°56' E 023°37'1 0.5
2014-Apr-17 06:33N 37°57' E 023°38'0 0.2
2014-Apr-17 05:33N 37°56' E 023°38'7 6.4
2014-Apr-17 04:27N 38°01' E 023°31'1 0.5
2014-Apr-17 03:25N 38°02' E 023°31'0 0.0
2014-Apr-17 02:33N 38°02' E 023°31'1 0.1
2014-Apr-16 21:29N 38°02' E 023°31'0 0.0
2014-Apr-16 20:32N 38°02' E 023°31'0 0.0
2014-Apr-16 19:33N 38°02' E 023°31'0 0.0
2014-Apr-16 18:27N 38°02' E 023°31'0 0.0
2014-Apr-16 17:32N 38°02' E 023°31'1 0.7
2014-Apr-16 16:33N 38°02' E 023°32'0 0.3
2014-Apr-16 15:29N 38°02' E 023°32'0 0.0
2014-Apr-16 14:33N 38°02' E 023°32'0 0.0
2014-Apr-16 13:32N 38°02' E 023°32'0 0.0
2014-Apr-16 12:28N 38°02' E 023°32'0 0.0
2014-Apr-16 11:25N 38°02' E 023°32'0 0.0
2014-Apr-16 09:27N 38°02' E 023°32'0 0.0
2014-Apr-16 08:27N 38°02' E 023°32'0 0.0
2014-Apr-16 07:33N 38°02' E 023°32'0 0.0
2014-Apr-16 06:31N 38°02' E 023°32'0 0.0
2014-Apr-16 05:33N 38°02' E 023°32'3 1.5
2014-Apr-16 03:30N 37°59' E 023°33'2 2.2
2014-Apr-16 02:33N 37°57' E 023°34'0 0.0
2014-Apr-16 01:33N 37°57' E 023°34'0 0.0
2014-Apr-16 00:33N 37°57' E 023°34'0 0.0
2014-Apr-15 23:33N 37°57' E 023°34'4 3.7
2014-Apr-15 22:33N 37°57' E 023°38'0 0.0
2014-Apr-15 21:33N 37°57' E 023°38'1 1.0
2014-Apr-15 20:33N 37°56' E 023°37'3 2.6
2014-Apr-15 19:33N 37°57' E 023°34'0 0.0
2014-Apr-15 18:33N 37°57' E 023°34'0 0.0
2014-Apr-15 17:33N 37°57' E 023°34'0 0.0
2014-Apr-15 16:33N 37°57' E 023°34'0 0.0
2014-Apr-15 15:33N 37°57' E 023°34'0 0.0
2014-Apr-15 14:33N 37°57' E 023°34'0 0.0
2014-Apr-15 12:34N 37°57' E 023°34'0 0.0
2014-Apr-15 11:34N 37°57' E 023°34'0 0.0
2014-Apr-15 10:34N 37°57' E 023°34'0 0.2
2014-Apr-15 09:34N 37°57' E 023°35'2 2.4
2014-Apr-15 08:34N 37°56' E 023°38'0 0.0
2014-Apr-15 07:33N 37°56' E 023°38'2 1.2
2014-Apr-15 05:33N 37°57' E 023°35'0 0.0
2014-Apr-13 03:33N 37°57' E 023°35'0 0.0
2014-Apr-13 02:33N 37°57' E 023°35'0 0.0
2014-Apr-13 01:33N 37°57' E 023°35'0 0.0
2014-Apr-13 00:33N 37°57' E 023°35'3 2.0
2014-Apr-12 23:04N 37°57' E 023°38'0 0.0
2014-Apr-12 22:24N 37°57' E 023°38'0 0.0
2014-Apr-12 21:26N 37°57' E 023°38'0 0.3
2014-Apr-12 20:26N 37°57' E 023°38'3 3.4
2014-Apr-12 19:33N 37°57' E 023°34'0 0.0
2014-Apr-12 18:33N 37°57' E 023°34'0 0.0
2014-Apr-12 17:33N 37°57' E 023°34'0 0.0
2014-Apr-12 16:33N 37°57' E 023°34'5 1.2
2014-Apr-12 12:17N 38°02' E 023°32'0 0.0
2014-Apr-12 10:18N 38°02' E 023°32'4 1.1
2014-Apr-12 06:18N 37°58' E 023°33'4 5.7
2014-Apr-12 05:33N 37°57' E 023°38'0 0.0
2014-Apr-12 04:31N 37°57' E 023°38'3 3.5
2014-Apr-12 03:33N 37°57' E 023°34'5 0.7
2014-Apr-11 20:11N 38°02' E 023°32'0 0.0
2014-Apr-11 19:18N 38°02' E 023°32'0 0.0
2014-Apr-11 14:22N 38°02' E 023°32'0 0.0
2014-Apr-11 13:29N 38°02' E 023°32'0 0.0
2014-Apr-11 10:11N 38°02' E 023°32'1 0.4
2014-Apr-11 08:16N 38°02' E 023°33'5 0.2
2014-Apr-10 12:14N 37°57' E 023°34'1 0.9
2014-Apr-10 11:33N 37°57' E 023°34'2 2.4
2014-Apr-10 10:33N 37°56' E 023°37'0 0.1
2014-Apr-10 09:32N 37°56' E 023°37'5 2.4
2014-Apr-10 07:23N 38°00' E 023°33'2 0.1
2014-Apr-09 14:04N 38°02' E 023°32'0 0.0
2014-Apr-09 08:25N 38°02' E 023°32'1 1.2
2014-Apr-09 07:19N 38°01' E 023°32'6 7.4
2014-Apr-09 06:33N 37°56' E 023°37'1 0.7
2014-Apr-09 05:33N 37°56' E 023°38'0 0.0
2014-Apr-09 04:30N 37°56' E 023°38'1 1.3
2014-Apr-09 03:33N 37°57' E 023°36'3 0.3
2014-Apr-08 17:33N 37°58' E 023°33'4 2.8
2014-Apr-08 16:06N 37°56' E 023°37'0 0.0
2014-Apr-08 15:33N 37°56' E 023°37'0 0.0
2014-Apr-08 14:33N 37°56' E 023°37'1 0.6
2014-Apr-08 13:33N 37°56' E 023°37'2 2.0
2014-Apr-08 12:33N 37°57' E 023°34'4 3.8
2014-Apr-08 11:30N 38°01' E 023°34'  

Dump ship's entire track history

sailing weather and tide predictions

Aegean Orion — SVA2487 — position and weather